Aérodrome :
LOGIN :

S'inscrire | Disclaimer

   EN    FR    IT 

 










Légende :    VFR   VFR Marginal   IFR   IFR Intensif   IFR Très Intensif
Visi : 
Plafond : 
>= 8 km
>= 3000ft
5 à 8 km
1000 à 3000 ft
1500m à 5 km
500 à 1000 ft
800 à 1500m
200 à 500 ft
< 800m
< 200 ft
Symboles :   Orages  Brouillard  Fortes neiges  Fortes précipitations  Vent > 20 kt
SIGMETs :   Divers  Orages  Givrage  Turbulence  Onde Orograph.  Cendres Volcan.






- Altitude de l'aérodrome : 28 ft
- Code IATA : SOZ


LFKS - Solenzara

DERNIER METAR :
  • 130730Z AUTO VRB02KT 9999 -RA SCT054/// BKN074/// BKN088/// ///CB 09/07 Q0993

METARs EXPIRÉS :
  • 130700Z AUTO 28004KT 220V310 9999 BKN064/// BKN084/// BKN110/// ///TCU 08/07 Q0993
  • 130630Z AUTO 25004KT 220V330 9999 BKN054/// BKN068/// OVC170/// ///TCU 08/07 Q0993
  • 130600Z AUTO VRB02KT 9999 FEW050/// SCT130/// BKN150/// ///TCU 08/07 Q0994
  • 130530Z AUTO VRB02KT 9999 SCT054/// BKN066/// BKN150/// ///CB 09/07 Q0994
  • 130500Z AUTO VRB06KT 9999 -DZ SCT048/// BKN054/// BKN076/// ///TCU 09/07 Q0994

TAF TAF LFKS
Valide du 13 à 03h jusqu'au 14 à 03h UTC


130200Z 1303/1403 27005KT 9999 SCT045 BKN150
TEMPO 1311/1403 27015G30KT



MET'MAP, la Météo Aéronautique d'un coup d'oeil ! - Copyright ORBIFLY Décembre 2007 - Disclaimer

ORBIFLY MET'MAP TEAM :

Programmation & Développement : Alexandra Zaïnal
Sur une idée originale de : Baudouin d'Aumeries
Assistance à la programmation : Marc-Olivier Méhu
Soutien technique & logistique : Manuel Goepfert

Contact : metmap@orbifly.com




SOURCES & CREDITS :

   NOAA